Clontarf, Minnesota
Current Conditions -  °F | °C
As of 1:34 AM on Saturday 29 Nov 2014 (Local Time) from KBBB Reporting Station
Clear Clear  
Wind Chill:   Ceiling: Unl
Heat Index: 19°   Visibility: 7mi
Dew Point: 18°   Wind: 10mph
Humidity: 93%   Direction: 170°S
Pressure: 29.54"   Gusts: NA
Location:  45.38°N, 95.68°W
Report Text: KBBB 290734Z AUTO 17009KT 7SM CLR M07/M08 A2954 RMK AO2
Loading
Personal Weather Stations






























Interactive Weather Map New forecast layout! Learn more

10-Day Weather Forecast

Advertisements
Track Severe Weather on mobile